createdAt,value
2017-06-03T00:00:19.351Z,83.00
2017-06-03T00:01:21.774Z,83.00
2017-06-03T00:02:24.179Z,83.00
2017-06-03T00:03:26.614Z,83.00
2017-06-03T00:04:28.990Z,83.00
2017-06-03T00:05:31.396Z,83.00
2017-06-03T00:06:33.802Z,83.00
2017-06-03T00:07:36.208Z,83.00
2017-06-03T00:08:38.612Z,83.00
2017-06-03T00:09:41.016Z,83.00
2017-06-03T00:10:43.427Z,84.00
2017-06-03T00:11:45.830Z,83.00
2017-06-03T00:12:48.251Z,83.00
2017-06-03T00:13:50.650Z,83.00
2017-06-03T00:14:53.057Z,83.00
2017-06-03T00:15:55.464Z,83.00
2017-06-03T00:16:57.870Z,84.00
2017-06-03T00:18:00.276Z,83.00
2017-06-03T00:19:02.679Z,83.00
2017-06-03T00:20:05.088Z,83.00
2017-06-03T00:21:07.496Z,83.00
2017-06-03T00:22:09.914Z,83.00
2017-06-03T00:23:12.320Z,83.00
2017-06-03T00:24:14.722Z,83.00
2017-06-03T00:25:17.134Z,83.00
2017-06-03T00:26:19.539Z,83.00
2017-06-03T00:27:21.944Z,83.00
2017-06-03T00:28:24.352Z,83.00
2017-06-03T00:29:26.765Z,83.00
2017-06-03T00:30:29.164Z,83.00
2017-06-03T00:31:31.584Z,83.00
2017-06-03T00:32:33.991Z,83.00
2017-06-03T00:33:36.400Z,83.00
2017-06-03T00:34:38.810Z,83.00
2017-06-03T00:35:41.217Z,83.00
2017-06-03T00:36:43.631Z,83.00
2017-06-03T00:37:46.036Z,83.00
2017-06-03T00:38:48.439Z,83.00
2017-06-03T00:39:50.852Z,83.00
2017-06-03T00:40:53.257Z,83.00
2017-06-03T00:41:55.681Z,83.00
2017-06-03T00:42:58.098Z,84.00
2017-06-03T00:44:00.511Z,84.00
2017-06-03T00:45:02.926Z,84.00
2017-06-03T00:46:05.328Z,84.00
2017-06-03T00:47:07.738Z,84.00
2017-06-03T00:48:10.151Z,84.00
2017-06-03T00:49:12.558Z,84.00
2017-06-03T00:50:14.963Z,84.00
2017-06-03T00:51:17.396Z,83.00
2017-06-03T00:52:19.792Z,83.00
2017-06-03T00:53:22.200Z,83.00
2017-06-03T00:54:24.613Z,83.00
2017-06-03T00:55:27.020Z,83.00
2017-06-03T00:56:29.422Z,83.00
2017-06-03T00:57:31.830Z,83.00
2017-06-03T00:58:34.236Z,84.00
2017-06-03T00:59:36.648Z,83.00
2017-06-03T01:00:39.052Z,83.00
2017-06-03T01:01:41.459Z,83.00
2017-06-03T01:02:43.874Z,83.00
2017-06-03T01:03:46.288Z,83.00
2017-06-03T01:04:48.716Z,83.00
2017-06-03T01:05:51.121Z,83.00
2017-06-03T01:06:53.527Z,83.00
2017-06-03T01:07:55.933Z,83.00
2017-06-03T01:08:58.343Z,83.00
2017-06-03T01:10:00.754Z,83.00
2017-06-03T01:11:03.156Z,83.00
2017-06-03T01:12:05.561Z,83.00
2017-06-03T01:13:07.967Z,83.00
2017-06-03T01:14:10.380Z,83.00
2017-06-03T01:15:12.797Z,84.00
2017-06-03T01:16:15.214Z,84.00
2017-06-03T01:17:17.621Z,84.00
2017-06-03T01:18:20.030Z,84.00
2017-06-03T01:19:22.431Z,84.00
2017-06-03T01:20:24.844Z,83.00
2017-06-03T01:21:27.256Z,83.00
2017-06-03T01:22:29.664Z,83.00
2017-06-03T01:23:32.072Z,83.00
2017-06-03T01:24:34.479Z,83.00
2017-06-03T01:25:36.909Z,83.00
2017-06-03T01:26:39.319Z,83.00
2017-06-03T01:27:41.727Z,83.00
2017-06-03T01:28:44.134Z,83.00
2017-06-03T01:29:46.536Z,83.00
2017-06-03T01:30:48.957Z,83.00
2017-06-03T01:31:51.363Z,83.00
2017-06-03T01:32:53.777Z,83.00
2017-06-03T01:33:56.187Z,83.00
2017-06-03T01:34:58.599Z,84.00
2017-06-03T01:36:01.000Z,84.00
2017-06-03T01:37:03.408Z,84.00
2017-06-03T01:38:05.814Z,84.00
2017-06-03T01:39:08.222Z,84.00
2017-06-03T01:40:10.628Z,84.00
2017-06-03T01:41:13.037Z,83.00
2017-06-03T01:42:15.447Z,83.00
2017-06-03T01:43:17.853Z,84.00
2017-06-03T01:44:20.265Z,84.00
2017-06-03T01:45:22.674Z,84.00
2017-06-03T01:46:25.092Z,84.00
2017-06-03T01:47:27.501Z,84.00
2017-06-03T01:48:29.911Z,84.00
2017-06-03T01:49:32.316Z,84.00
2017-06-03T01:50:34.725Z,84.00
2017-06-03T01:51:37.134Z,84.00
2017-06-03T01:52:39.537Z,84.00
2017-06-03T01:53:41.935Z,84.00
2017-06-03T01:54:44.360Z,83.00
2017-06-03T01:55:46.769Z,83.00
2017-06-03T01:56:49.187Z,84.00
2017-06-03T01:57:51.597Z,84.00
2017-06-03T01:58:54.004Z,84.00
2017-06-03T01:59:56.404Z,84.00
2017-06-03T02:00:58.809Z,84.00
2017-06-03T02:02:01.213Z,84.00
2017-06-03T02:03:03.618Z,84.00
2017-06-03T02:04:06.026Z,84.00
2017-06-03T02:05:08.451Z,84.00
2017-06-03T02:06:10.862Z,84.00
2017-06-03T02:07:13.268Z,84.00
2017-06-03T02:08:15.677Z,84.00
2017-06-03T02:09:18.084Z,84.00
2017-06-03T02:10:20.493Z,84.00
2017-06-03T02:11:22.916Z,84.00
2017-06-03T02:12:25.317Z,84.00
2017-06-03T02:13:27.738Z,84.00
2017-06-03T02:14:30.143Z,84.00
2017-06-03T02:15:32.564Z,83.00
2017-06-03T02:16:34.969Z,84.00
2017-06-03T02:17:37.381Z,84.00
2017-06-03T02:18:39.793Z,84.00
2017-06-03T02:19:42.200Z,84.00
2017-06-03T02:20:44.608Z,84.00
2017-06-03T02:21:47.013Z,84.00
2017-06-03T02:22:49.418Z,84.00
2017-06-03T02:23:51.826Z,84.00
2017-06-03T02:24:54.231Z,84.00
2017-06-03T02:25:56.651Z,84.00
2017-06-03T02:26:59.058Z,84.00
2017-06-03T02:28:01.499Z,84.00
2017-06-03T02:29:03.899Z,84.00
2017-06-03T02:30:06.312Z,84.00
2017-06-03T02:31:08.714Z,84.00
2017-06-03T02:32:11.119Z,84.00
2017-06-03T02:33:13.522Z,84.00
2017-06-03T02:34:15.932Z,84.00
2017-06-03T02:35:18.329Z,84.00
2017-06-03T02:36:20.762Z,84.00
2017-06-03T02:37:23.166Z,84.00
2017-06-03T02:38:25.575Z,84.00
2017-06-03T02:39:27.995Z,84.00
2017-06-03T02:40:30.404Z,84.00
2017-06-03T02:41:32.810Z,84.00
2017-06-03T02:42:35.231Z,84.00
2017-06-03T02:43:37.639Z,84.00
2017-06-03T02:44:40.048Z,84.00
2017-06-03T02:45:42.456Z,84.00
2017-06-03T02:46:44.884Z,84.00
2017-06-03T02:47:47.280Z,84.00
2017-06-03T02:48:49.696Z,84.00
2017-06-03T02:49:52.103Z,84.00
2017-06-03T02:50:54.510Z,84.00
2017-06-03T02:51:56.921Z,84.00
2017-06-03T02:52:59.327Z,84.00
2017-06-03T02:54:01.737Z,84.00
2017-06-03T02:55:04.143Z,84.00
2017-06-03T02:56:06.548Z,84.00
2017-06-03T02:57:08.958Z,84.00
2017-06-03T02:58:11.360Z,84.00
2017-06-03T02:59:13.770Z,84.00
2017-06-03T03:00:16.176Z,84.00
2017-06-03T03:01:18.588Z,84.00
2017-06-03T03:02:20.992Z,84.00
2017-06-03T03:03:23.398Z,84.00
2017-06-03T03:04:25.807Z,84.00
2017-06-03T03:05:28.214Z,84.00
2017-06-03T03:06:30.624Z,84.00
2017-06-03T03:07:33.031Z,84.00
2017-06-03T03:08:35.441Z,84.00
2017-06-03T03:09:37.852Z,84.00
2017-06-03T03:10:40.264Z,84.00
2017-06-03T03:11:42.670Z,84.00
2017-06-03T03:12:46.070Z,84.00
2017-06-03T03:13:48.468Z,84.00
2017-06-03T03:14:50.878Z,84.00
2017-06-03T03:15:53.283Z,84.00
2017-06-03T03:16:55.694Z,84.00
2017-06-03T03:17:58.090Z,84.00
2017-06-03T03:19:00.515Z,84.00
2017-06-03T03:20:02.940Z,84.00
2017-06-03T03:21:05.346Z,84.00
2017-06-03T03:22:07.750Z,84.00
2017-06-03T03:23:10.156Z,84.00
2017-06-03T03:24:12.559Z,84.00
2017-06-03T03:25:14.967Z,84.00
2017-06-03T03:26:17.371Z,84.00
2017-06-03T03:27:19.777Z,84.00
2017-06-03T03:28:22.178Z,84.00
2017-06-03T03:29:24.603Z,84.00
2017-06-03T03:30:27.017Z,84.00
2017-06-03T03:31:29.427Z,84.00
2017-06-03T03:32:31.835Z,84.00
2017-06-03T03:33:34.238Z,84.00
2017-06-03T03:34:36.643Z,84.00
2017-06-03T03:35:39.051Z,84.00
2017-06-03T03:36:41.456Z,84.00
2017-06-03T03:37:43.865Z,84.00
2017-06-03T03:38:46.270Z,84.00
2017-06-03T03:39:48.685Z,84.00
2017-06-03T03:40:51.116Z,84.00
2017-06-03T03:41:53.518Z,84.00
2017-06-03T03:42:55.924Z,84.00
2017-06-03T03:43:58.337Z,84.00
2017-06-03T03:45:00.741Z,84.00
2017-06-03T03:46:03.146Z,84.00
2017-06-03T03:47:05.556Z,84.00
2017-06-03T03:48:07.961Z,84.00
2017-06-03T03:49:10.371Z,84.00
2017-06-03T03:50:12.789Z,84.00
2017-06-03T03:51:15.199Z,84.00
2017-06-03T03:52:17.617Z,84.00
2017-06-03T03:53:20.023Z,84.00
2017-06-03T03:54:22.443Z,84.00
2017-06-03T03:55:24.842Z,84.00
2017-06-03T03:56:27.252Z,84.00
2017-06-03T03:57:29.661Z,84.00
2017-06-03T03:58:32.066Z,84.00
2017-06-03T03:59:34.471Z,84.00
2017-06-03T04:00:36.881Z,84.00
2017-06-03T04:01:39.288Z,84.00
2017-06-03T04:02:41.695Z,84.00
2017-06-03T04:03:44.105Z,84.00
2017-06-03T04:04:46.510Z,84.00
2017-06-03T04:05:48.915Z,84.00
2017-06-03T04:06:51.327Z,84.00
2017-06-03T04:07:53.732Z,84.00
2017-06-03T04:08:56.135Z,84.00
2017-06-03T04:09:58.544Z,84.00
2017-06-03T04:11:00.952Z,84.00
2017-06-03T04:12:03.360Z,84.00
2017-06-03T04:13:05.786Z,84.00
2017-06-03T04:14:08.200Z,84.00
2017-06-03T04:15:10.605Z,84.00
2017-06-03T04:16:13.016Z,85.00
2017-06-03T04:17:15.415Z,84.00
2017-06-03T04:18:17.818Z,84.00
2017-06-03T04:19:20.224Z,84.00
2017-06-03T04:20:22.630Z,84.00
2017-06-03T04:21:25.049Z,85.00
2017-06-03T04:22:27.454Z,84.00
2017-06-03T04:23:29.871Z,85.00
2017-06-03T04:24:32.276Z,85.00
2017-06-03T04:25:34.686Z,84.00
2017-06-03T04:26:37.090Z,84.00
2017-06-03T04:27:39.499Z,84.00
2017-06-03T04:28:41.908Z,85.00
2017-06-03T04:29:44.315Z,84.00
2017-06-03T04:30:46.721Z,84.00
2017-06-03T04:31:49.131Z,84.00
2017-06-03T04:32:51.544Z,84.00
2017-06-03T04:33:53.956Z,84.00
2017-06-03T04:34:56.370Z,84.00
2017-06-03T04:35:58.780Z,84.00
2017-06-03T04:37:01.185Z,84.00
2017-06-03T04:38:03.590Z,84.00
2017-06-03T04:39:05.995Z,84.00
2017-06-03T04:40:08.402Z,84.00
2017-06-03T04:41:10.813Z,84.00
2017-06-03T04:42:13.214Z,84.00
2017-06-03T04:43:15.620Z,84.00
2017-06-03T04:44:18.032Z,84.00
2017-06-03T04:45:20.442Z,84.00
2017-06-03T04:46:22.847Z,84.00
2017-06-03T04:47:25.255Z,84.00
2017-06-03T04:48:27.662Z,84.00
2017-06-03T04:49:30.068Z,84.00
2017-06-03T04:50:32.476Z,84.00
2017-06-03T04:51:34.880Z,84.00
2017-06-03T04:52:37.306Z,84.00
2017-06-03T04:53:39.712Z,84.00
2017-06-03T04:54:42.116Z,84.00
2017-06-03T04:55:44.531Z,84.00
2017-06-03T04:56:46.947Z,84.00
2017-06-03T04:57:49.345Z,84.00
2017-06-03T04:58:51.757Z,84.00
2017-06-03T04:59:54.161Z,84.00
2017-06-03T05:00:56.563Z,84.00
2017-06-03T05:01:58.969Z,84.00
2017-06-03T05:03:01.380Z,84.00
2017-06-03T05:04:03.784Z,84.00
2017-06-03T05:05:06.217Z,84.00
2017-06-03T05:06:08.627Z,84.00
2017-06-03T05:07:11.034Z,84.00
2017-06-03T05:08:13.439Z,84.00
2017-06-03T05:09:15.842Z,84.00
2017-06-03T05:10:18.251Z,84.00
2017-06-03T05:11:20.662Z,84.00
2017-06-03T05:12:23.066Z,84.00
2017-06-03T05:13:25.479Z,84.00
2017-06-03T05:14:27.890Z,84.00
2017-06-03T05:15:30.291Z,84.00
2017-06-03T05:16:32.708Z,84.00
2017-06-03T05:17:35.111Z,84.00
2017-06-03T05:18:37.516Z,84.00
2017-06-03T05:19:39.935Z,84.00
2017-06-03T05:20:42.328Z,84.00
2017-06-03T05:21:44.741Z,84.00
2017-06-03T05:22:47.146Z,84.00
2017-06-03T05:23:49.562Z,84.00
2017-06-03T05:24:51.992Z,84.00
2017-06-03T05:25:54.418Z,84.00
2017-06-03T05:26:56.830Z,84.00
2017-06-03T05:27:59.233Z,84.00
2017-06-03T05:29:01.639Z,84.00
2017-06-03T05:30:04.044Z,84.00
2017-06-03T05:31:06.450Z,84.00
2017-06-03T05:32:08.858Z,84.00
2017-06-03T05:33:11.263Z,84.00
2017-06-03T05:34:13.674Z,84.00
2017-06-03T05:35:16.080Z,84.00
2017-06-03T05:36:18.495Z,84.00
2017-06-03T05:37:20.914Z,84.00
2017-06-03T05:38:23.320Z,84.00
2017-06-03T05:39:25.731Z,84.00
2017-06-03T05:40:28.136Z,84.00
2017-06-03T05:41:30.544Z,84.00
2017-06-03T05:42:32.949Z,84.00
2017-06-03T05:43:35.355Z,84.00
2017-06-03T05:44:37.761Z,84.00
2017-06-03T05:45:40.167Z,84.00
2017-06-03T05:46:42.572Z,84.00
2017-06-03T05:47:44.989Z,84.00
2017-06-03T05:48:47.408Z,84.00
2017-06-03T05:49:49.816Z,84.00
2017-06-03T05:50:52.224Z,84.00
2017-06-03T05:51:54.632Z,84.00
2017-06-03T05:52:57.036Z,84.00
2017-06-03T05:53:59.445Z,84.00
2017-06-03T05:55:01.849Z,84.00
2017-06-03T05:56:04.265Z,84.00
2017-06-03T05:57:06.671Z,84.00
2017-06-03T05:58:09.084Z,84.00
2017-06-03T05:59:11.497Z,84.00
2017-06-03T06:00:13.895Z,84.00
2017-06-03T06:01:16.306Z,84.00
2017-06-03T06:02:18.715Z,84.00
2017-06-03T06:03:21.118Z,84.00
2017-06-03T06:04:23.523Z,84.00
2017-06-03T06:05:25.941Z,84.00
2017-06-03T06:06:28.343Z,84.00
2017-06-03T06:07:30.750Z,84.00
2017-06-03T06:08:33.163Z,84.00
2017-06-03T06:09:35.574Z,84.00
2017-06-03T06:10:37.985Z,84.00
2017-06-03T06:11:40.389Z,84.00
2017-06-03T06:12:42.795Z,84.00
2017-06-03T06:13:45.199Z,84.00
2017-06-03T06:14:47.597Z,84.00
2017-06-03T06:15:50.026Z,84.00
2017-06-03T06:16:52.430Z,84.00
2017-06-03T06:17:54.845Z,84.00
2017-06-03T06:18:57.255Z,84.00
2017-06-03T06:19:59.660Z,85.00
2017-06-03T06:21:02.070Z,85.00
2017-06-03T06:22:04.472Z,85.00
2017-06-03T06:23:06.887Z,85.00
2017-06-03T06:24:09.286Z,84.00
2017-06-03T06:25:11.693Z,85.00
2017-06-03T06:26:14.103Z,84.00
2017-06-03T06:27:16.520Z,84.00
2017-06-03T06:28:18.932Z,85.00
2017-06-03T06:29:21.348Z,84.00
2017-06-03T06:30:23.750Z,85.00
2017-06-03T06:31:26.160Z,84.00
2017-06-03T06:32:28.567Z,84.00
2017-06-03T06:33:30.977Z,84.00
2017-06-03T06:34:33.380Z,84.00
2017-06-03T06:35:35.794Z,85.00
2017-06-03T06:36:38.200Z,84.00
2017-06-03T06:37:40.610Z,84.00
2017-06-03T06:38:43.024Z,84.00
2017-06-03T06:39:45.426Z,84.00
2017-06-03T06:40:47.857Z,85.00
2017-06-03T06:41:50.253Z,84.00
2017-06-03T06:42:52.658Z,85.00
2017-06-03T06:43:55.068Z,85.00
2017-06-03T06:44:57.475Z,85.00
2017-06-03T06:45:59.877Z,84.00
2017-06-03T06:47:02.284Z,84.00
2017-06-03T06:48:04.699Z,84.00
2017-06-03T06:49:07.105Z,84.00
2017-06-03T06:50:09.525Z,84.00
2017-06-03T06:51:11.930Z,84.00
2017-06-03T06:52:14.337Z,84.00
2017-06-03T06:53:16.747Z,84.00
2017-06-03T06:54:19.154Z,84.00
2017-06-03T06:55:21.562Z,84.00
2017-06-03T06:56:23.967Z,85.00
2017-06-03T06:57:26.374Z,84.00
2017-06-03T06:58:28.784Z,84.00
2017-06-03T06:59:31.189Z,85.00
2017-06-03T07:00:33.599Z,84.00
2017-06-03T07:01:36.019Z,84.00
2017-06-03T07:02:38.428Z,84.00
2017-06-03T07:03:40.844Z,84.00
2017-06-03T07:04:43.248Z,84.00
2017-06-03T07:05:45.658Z,84.00
2017-06-03T07:06:48.069Z,84.00
2017-06-03T07:07:50.474Z,84.00
2017-06-03T07:08:52.891Z,84.00
2017-06-03T07:09:55.301Z,84.00
2017-06-03T07:10:57.707Z,84.00
2017-06-03T07:12:00.125Z,84.00
2017-06-03T07:13:02.536Z,84.00
2017-06-03T07:14:04.944Z,84.00
2017-06-03T07:15:07.360Z,84.00
2017-06-03T07:16:09.759Z,84.00
2017-06-03T07:17:12.168Z,84.00
2017-06-03T07:18:14.572Z,84.00
2017-06-03T07:19:16.985Z,84.00
2017-06-03T07:20:19.387Z,84.00
2017-06-03T07:21:21.801Z,84.00
2017-06-03T07:22:24.232Z,84.00
2017-06-03T07:23:26.622Z,84.00
2017-06-03T07:24:29.037Z,84.00
2017-06-03T07:25:31.444Z,84.00
2017-06-03T07:26:33.852Z,84.00
2017-06-03T07:27:36.268Z,84.00
2017-06-03T07:28:38.675Z,83.00
2017-06-03T07:29:41.093Z,83.00
2017-06-03T07:30:43.510Z,83.00
2017-06-03T07:31:45.912Z,84.00
2017-06-03T07:32:48.328Z,83.00
2017-06-03T07:33:50.765Z,84.00
2017-06-03T07:34:53.163Z,84.00
2017-06-03T07:35:55.568Z,84.00
2017-06-03T07:36:57.994Z,83.00
2017-06-03T07:38:00.379Z,83.00
2017-06-03T07:39:02.782Z,83.00
2017-06-03T07:40:05.207Z,83.00
2017-06-03T07:41:07.613Z,83.00
2017-06-03T07:42:10.026Z,83.00
2017-06-03T07:43:12.440Z,83.00
2017-06-03T07:44:14.852Z,83.00
2017-06-03T07:45:17.266Z,83.00
2017-06-03T07:46:19.671Z,83.00
2017-06-03T07:47:22.081Z,83.00
2017-06-03T07:48:24.484Z,83.00
2017-06-03T07:49:26.898Z,83.00
2017-06-03T07:50:29.316Z,84.00
2017-06-03T07:51:31.719Z,84.00
2017-06-03T07:52:34.125Z,84.00
2017-06-03T07:53:36.543Z,84.00
2017-06-03T07:54:38.951Z,84.00
2017-06-03T07:55:41.362Z,85.00
2017-06-03T07:56:43.771Z,85.00
2017-06-03T07:57:46.177Z,85.00
2017-06-03T07:58:48.588Z,85.00
2017-06-03T07:59:50.999Z,85.00
2017-06-03T08:00:53.422Z,85.00
2017-06-03T08:01:55.833Z,85.00
2017-06-03T08:02:58.249Z,85.00
2017-06-03T08:04:00.656Z,85.00
2017-06-03T08:05:03.061Z,85.00
2017-06-03T08:06:05.472Z,85.00
2017-06-03T08:07:07.882Z,85.00
2017-06-03T08:08:10.288Z,85.00
2017-06-03T08:09:12.703Z,85.00
2017-06-03T08:10:15.111Z,85.00
2017-06-03T08:11:17.530Z,85.00
2017-06-03T08:12:19.942Z,85.00
2017-06-03T08:13:22.345Z,85.00
2017-06-03T08:14:24.759Z,85.00
2017-06-03T08:15:27.167Z,84.00
2017-06-03T08:16:29.575Z,84.00
2017-06-03T08:17:31.982Z,84.00
2017-06-03T08:18:34.389Z,84.00
2017-06-03T08:19:36.795Z,84.00
2017-06-03T08:20:39.211Z,84.00
2017-06-03T08:21:41.626Z,84.00
2017-06-03T08:22:44.035Z,84.00
2017-06-03T08:23:46.444Z,84.00
2017-06-03T08:24:48.856Z,84.00
2017-06-03T08:25:51.278Z,83.00
2017-06-03T08:26:53.692Z,82.00
2017-06-03T08:27:56.100Z,82.00
2017-06-03T08:28:58.511Z,82.00
2017-06-03T08:30:00.917Z,83.00
2017-06-03T08:31:03.324Z,82.00
2017-06-03T08:32:05.741Z,82.00
2017-06-03T08:33:08.149Z,82.00
2017-06-03T08:34:10.558Z,82.00
2017-06-03T08:35:12.980Z,82.00
2017-06-03T08:36:15.389Z,82.00
2017-06-03T08:37:17.796Z,82.00
2017-06-03T08:38:20.202Z,83.00
2017-06-03T08:39:22.610Z,84.00
2017-06-03T08:40:25.020Z,84.00
2017-06-03T08:41:27.430Z,84.00
2017-06-03T08:42:29.851Z,84.00
2017-06-03T08:43:32.254Z,84.00
2017-06-03T08:44:34.675Z,84.00
2017-06-03T08:45:37.075Z,84.00
2017-06-03T08:46:39.487Z,84.00
2017-06-03T08:47:41.898Z,84.00
2017-06-03T08:48:44.302Z,84.00
2017-06-03T08:49:46.703Z,84.00
2017-06-03T08:50:49.122Z,84.00
2017-06-03T08:51:51.522Z,84.00
2017-06-03T08:52:53.936Z,83.00
2017-06-03T08:53:56.347Z,83.00
2017-06-03T08:54:58.755Z,84.00
2017-06-03T08:56:01.169Z,84.00
2017-06-03T08:57:03.578Z,84.00
2017-06-03T08:58:05.984Z,84.00
2017-06-03T08:59:08.396Z,84.00
2017-06-03T09:00:10.801Z,84.00
2017-06-03T09:01:13.214Z,84.00
2017-06-03T09:02:15.625Z,84.00
2017-06-03T09:03:18.028Z,84.00
2017-06-03T09:04:20.453Z,84.00
2017-06-03T09:05:22.857Z,84.00
2017-06-03T09:06:25.261Z,84.00
2017-06-03T09:07:27.684Z,84.00
2017-06-03T09:08:30.088Z,84.00
2017-06-03T09:09:32.498Z,84.00
2017-06-03T09:10:34.906Z,83.00
2017-06-03T09:11:37.314Z,84.00
2017-06-03T09:12:39.728Z,84.00
2017-06-03T09:13:42.136Z,84.00
2017-06-03T09:14:44.542Z,84.00
2017-06-03T09:15:46.946Z,84.00
2017-06-03T09:16:49.354Z,84.00
2017-06-03T09:17:51.771Z,84.00
2017-06-03T09:18:54.186Z,84.00
2017-06-03T09:19:56.598Z,84.00
2017-06-03T09:20:58.998Z,84.00
2017-06-03T09:22:01.415Z,83.00
2017-06-03T09:23:03.819Z,83.00
2017-06-03T09:24:06.215Z,84.00
2017-06-03T09:25:08.647Z,84.00
2017-06-03T09:26:11.055Z,84.00
2017-06-03T09:27:13.501Z,84.00
2017-06-03T09:28:15.917Z,85.00
2017-06-03T09:29:18.328Z,84.00
2017-06-03T09:30:20.742Z,85.00
2017-06-03T09:31:23.149Z,85.00
2017-06-03T09:32:25.550Z,85.00
2017-06-03T09:33:27.961Z,85.00
2017-06-03T09:34:30.368Z,85.00
2017-06-03T09:35:32.782Z,85.00
2017-06-03T09:36:35.207Z,85.00
2017-06-03T09:37:37.617Z,84.00
2017-06-03T09:38:40.030Z,84.00
2017-06-03T09:39:42.438Z,84.00
2017-06-03T09:40:44.846Z,85.00
2017-06-03T09:41:47.254Z,84.00
2017-06-03T09:42:49.660Z,85.00
2017-06-03T09:43:52.067Z,84.00
2017-06-03T09:44:54.474Z,85.00
2017-06-03T09:45:56.895Z,84.00
2017-06-03T09:46:59.306Z,84.00
2017-06-03T09:48:01.724Z,84.00
2017-06-03T09:49:04.131Z,84.00
2017-06-03T09:50:06.543Z,84.00
2017-06-03T09:51:08.947Z,84.00
2017-06-03T09:52:11.358Z,84.00
2017-06-03T09:53:13.765Z,84.00
2017-06-03T09:54:16.171Z,84.00
2017-06-03T09:55:18.581Z,83.00
2017-06-03T09:56:20.996Z,82.00
2017-06-03T09:57:23.410Z,82.00
2017-06-03T09:58:25.810Z,82.00
2017-06-03T09:59:28.226Z,82.00
2017-06-03T10:00:30.635Z,82.00
2017-06-03T10:01:33.046Z,83.00
2017-06-03T10:02:35.458Z,83.00
2017-06-03T10:03:37.866Z,83.00
2017-06-03T10:04:40.278Z,84.00
2017-06-03T10:05:42.692Z,83.00
2017-06-03T10:06:45.106Z,83.00
2017-06-03T10:07:47.520Z,83.00
2017-06-03T10:08:49.945Z,82.00
2017-06-03T10:09:52.348Z,83.00
2017-06-03T10:10:54.758Z,83.00
2017-06-03T10:11:57.165Z,83.00
2017-06-03T10:12:59.576Z,84.00
2017-06-03T10:14:01.982Z,84.00
2017-06-03T10:15:04.395Z,84.00
2017-06-03T10:16:06.800Z,84.00
2017-06-03T10:17:09.210Z,84.00
2017-06-03T10:18:11.624Z,84.00
2017-06-03T10:19:14.035Z,83.00
2017-06-03T10:20:16.456Z,83.00
2017-06-03T10:21:18.866Z,83.00
2017-06-03T10:22:21.279Z,82.00
2017-06-03T10:23:23.686Z,82.00
2017-06-03T10:24:26.097Z,82.00
2017-06-03T10:25:28.499Z,81.00
2017-06-03T10:26:30.907Z,81.00
2017-06-03T10:27:33.332Z,82.00
2017-06-03T10:28:35.757Z,82.00
2017-06-03T10:29:38.165Z,81.00
2017-06-03T10:30:40.579Z,81.00
2017-06-03T10:31:42.995Z,82.00
2017-06-03T10:32:45.403Z,82.00
2017-06-03T10:33:47.812Z,82.00
2017-06-03T10:34:50.224Z,82.00
2017-06-03T10:35:52.631Z,83.00
2017-06-03T10:36:55.041Z,83.00
2017-06-03T10:37:57.450Z,83.00
2017-06-03T10:38:59.864Z,84.00
2017-06-03T10:40:02.269Z,83.00
2017-06-03T10:41:04.683Z,82.00
2017-06-03T10:42:07.082Z,82.00
2017-06-03T10:43:09.499Z,82.00
2017-06-03T10:44:11.906Z,83.00
2017-06-03T10:45:14.317Z,83.00
2017-06-03T10:46:16.727Z,84.00
2017-06-03T10:47:19.143Z,83.00
2017-06-03T10:48:21.554Z,83.00
2017-06-03T10:49:23.962Z,83.00
2017-06-03T10:50:26.372Z,84.00
2017-06-03T10:51:28.786Z,83.00
2017-06-03T10:52:31.212Z,83.00
2017-06-03T10:53:33.619Z,82.00
2017-06-03T10:54:36.031Z,82.00
2017-06-03T10:55:38.441Z,82.00
2017-06-03T10:56:40.846Z,83.00
2017-06-03T10:57:43.253Z,83.00
2017-06-03T10:58:45.666Z,83.00
2017-06-03T10:59:48.073Z,83.00
2017-06-03T11:00:50.478Z,84.00
2017-06-03T11:01:52.893Z,84.00
2017-06-03T11:02:55.299Z,86.00
2017-06-03T11:03:57.700Z,86.00
2017-06-03T11:05:00.120Z,86.00
2017-06-03T11:06:02.526Z,86.00
2017-06-03T11:07:04.936Z,86.00
2017-06-03T11:08:07.347Z,87.00
2017-06-03T11:09:09.764Z,88.00
2017-06-03T11:10:12.174Z,89.00
2017-06-03T11:11:14.580Z,89.00
2017-06-03T11:12:16.994Z,86.00
2017-06-03T11:13:19.409Z,82.00
2017-06-03T11:14:21.819Z,79.00
2017-06-03T11:15:24.229Z,77.00
2017-06-03T11:16:26.640Z,76.00
2017-06-03T11:17:29.053Z,76.00
2017-06-03T11:18:31.457Z,77.00
2017-06-03T11:19:33.872Z,76.00
2017-06-03T11:20:36.282Z,77.00
2017-06-03T11:21:38.690Z,78.00
2017-06-03T11:22:41.100Z,78.00
2017-06-03T11:23:43.518Z,78.00
2017-06-03T11:24:45.929Z,78.00
2017-06-03T11:25:48.334Z,79.00
2017-06-03T11:26:50.750Z,79.00
2017-06-03T11:27:53.154Z,79.00
2017-06-03T11:28:55.565Z,79.00
2017-06-03T11:29:57.988Z,79.00
2017-06-03T11:31:00.398Z,79.00
2017-06-03T11:32:02.807Z,80.00
2017-06-03T11:33:05.229Z,80.00
2017-06-03T11:34:07.631Z,80.00
2017-06-03T11:35:10.037Z,80.00
2017-06-03T11:36:12.443Z,81.00
2017-06-03T11:37:14.849Z,82.00
2017-06-03T11:38:17.254Z,82.00
2017-06-03T11:39:19.667Z,81.00
2017-06-03T11:40:22.078Z,81.00
2017-06-03T11:41:24.484Z,82.00
2017-06-03T11:42:26.898Z,82.00
2017-06-03T11:43:29.354Z,82.00
2017-06-03T11:44:31.760Z,82.00
2017-06-03T11:45:34.170Z,82.00
2017-06-03T11:46:36.577Z,82.00
2017-06-03T11:47:38.986Z,82.00
2017-06-03T11:48:41.390Z,82.00
2017-06-03T11:49:43.797Z,82.00
2017-06-03T11:50:46.210Z,82.00
2017-06-03T11:51:48.620Z,82.00
2017-06-03T11:52:51.029Z,82.00
2017-06-03T11:53:53.458Z,82.00
2017-06-03T11:54:55.861Z,82.00
2017-06-03T11:55:58.266Z,82.00
2017-06-03T11:57:00.674Z,83.00
2017-06-03T11:58:03.084Z,82.00
2017-06-03T11:59:05.492Z,82.00
2017-06-03T12:00:07.902Z,82.00
2017-06-03T12:01:10.313Z,83.00
2017-06-03T12:02:12.725Z,83.00
2017-06-03T12:03:15.127Z,83.00
2017-06-03T12:04:17.538Z,83.00
2017-06-03T12:05:19.954Z,83.00
2017-06-03T12:06:22.362Z,83.00
2017-06-03T12:07:24.774Z,83.00
2017-06-03T12:08:27.189Z,83.00
2017-06-03T12:09:29.610Z,83.00
2017-06-03T12:10:32.014Z,83.00
2017-06-03T12:11:34.424Z,83.00
2017-06-03T12:12:36.836Z,83.00
2017-06-03T12:13:39.242Z,83.00
2017-06-03T12:14:41.648Z,83.00
2017-06-03T12:15:44.069Z,83.00
2017-06-03T12:16:46.483Z,83.00
2017-06-03T12:17:48.886Z,83.00
2017-06-03T12:18:51.297Z,83.00
2017-06-03T12:19:53.703Z,83.00
2017-06-03T12:20:56.135Z,83.00
2017-06-03T12:21:58.535Z,83.00
2017-06-03T12:23:00.945Z,83.00
2017-06-03T12:24:03.355Z,83.00
2017-06-03T12:25:05.768Z,83.00
2017-06-03T12:26:08.179Z,84.00
2017-06-03T12:27:10.586Z,84.00
2017-06-03T12:28:12.994Z,84.00
2017-06-03T12:29:15.404Z,84.00
2017-06-03T12:30:17.815Z,84.00
2017-06-03T12:31:20.218Z,84.00
2017-06-03T12:32:22.637Z,84.00
2017-06-03T12:33:25.044Z,83.00
2017-06-03T12:34:27.456Z,83.00
2017-06-03T12:35:29.870Z,83.00
2017-06-03T12:36:32.283Z,83.00
2017-06-03T12:37:34.688Z,83.00
2017-06-03T12:38:37.111Z,84.00
2017-06-03T12:39:39.515Z,84.00
2017-06-03T12:40:41.922Z,84.00
2017-06-03T12:41:44.333Z,84.00
2017-06-03T12:42:46.753Z,84.00
2017-06-03T12:43:49.167Z,84.00
2017-06-03T12:44:51.572Z,84.00
2017-06-03T12:45:53.994Z,84.00
2017-06-03T12:46:56.401Z,84.00
2017-06-03T12:47:58.811Z,84.00
2017-06-03T12:49:01.216Z,84.00
2017-06-03T12:50:03.622Z,84.00
2017-06-03T12:51:06.030Z,84.00
2017-06-03T12:52:08.443Z,84.00
2017-06-03T12:53:10.849Z,84.00
2017-06-03T12:54:13.261Z,84.00
2017-06-03T12:55:15.670Z,84.00
2017-06-03T12:56:18.083Z,83.00
2017-06-03T12:57:20.498Z,84.00
2017-06-03T12:58:22.903Z,84.00
2017-06-03T12:59:25.319Z,84.00
2017-06-03T13:00:27.736Z,85.00
2017-06-03T13:01:30.145Z,85.00
2017-06-03T13:02:32.570Z,86.00
2017-06-03T13:03:34.963Z,86.00
2017-06-03T13:04:37.381Z,85.00
2017-06-03T13:05:39.790Z,84.00
2017-06-03T13:06:42.198Z,84.00
2017-06-03T13:07:44.601Z,84.00
2017-06-03T13:08:47.008Z,83.00
2017-06-03T13:09:49.426Z,83.00
2017-06-03T13:10:51.836Z,84.00
2017-06-03T13:11:54.247Z,84.00
2017-06-03T13:12:56.651Z,83.00
2017-06-03T13:13:59.058Z,83.00
2017-06-03T13:15:01.471Z,83.00
2017-06-03T13:16:03.880Z,83.00
2017-06-03T13:17:06.274Z,83.00
2017-06-03T13:18:08.709Z,84.00
2017-06-03T13:19:11.115Z,84.00
2017-06-03T13:20:13.523Z,84.00
2017-06-03T13:21:15.934Z,84.00
2017-06-03T13:22:18.340Z,84.00
2017-06-03T13:23:20.742Z,84.00